sensor_id;sensor_type;location;lat;lon;timestamp;P1;durP1;ratioP1;P2;durP2;ratioP2
66933;SDS011;53846;51.984;5.890;2022-08-26T00:02:09;77.68;;;73.78;;
66933;SDS011;53846;51.984;5.890;2022-08-26T00:04:39;71.03;;;67.53;;
66933;SDS011;53846;51.984;5.890;2022-08-26T00:07:08;73.80;;;70.20;;
66933;SDS011;53846;51.984;5.890;2022-08-26T00:09:40;67.20;;;63.95;;
66933;SDS011;53846;51.984;5.890;2022-08-26T00:12:09;73.13;;;69.53;;
66933;SDS011;53846;51.984;5.890;2022-08-26T00:14:38;66.70;;;63.40;;
66933;SDS011;53846;51.984;5.890;2022-08-26T00:17:08;62.88;;;59.85;;
66933;SDS011;53846;51.984;5.890;2022-08-26T00:19:37;66.50;;;63.03;;
66933;SDS011;53846;51.984;5.890;2022-08-26T00:22:06;60.08;;;57.13;;
66933;SDS011;53846;51.984;5.890;2022-08-26T00:24:35;55.35;;;52.65;;
66933;SDS011;53846;51.984;5.890;2022-08-26T00:27:07;56.90;;;53.97;;
66933;SDS011;53846;51.984;5.890;2022-08-26T00:29:36;60.05;;;57.10;;
66933;SDS011;53846;51.984;5.890;2022-08-26T00:32:05;57.83;;;54.92;;
66933;SDS011;53846;51.984;5.890;2022-08-26T00:34:34;56.35;;;53.58;;
66933;SDS011;53846;51.984;5.890;2022-08-26T00:37:03;53.85;;;51.25;;
66933;SDS011;53846;51.984;5.890;2022-08-26T00:39:32;55.75;;;53.03;;
66933;SDS011;53846;51.984;5.890;2022-08-26T00:42:01;57.80;;;55.00;;
66933;SDS011;53846;51.984;5.890;2022-08-26T00:44:33;59.67;;;56.70;;
66933;SDS011;53846;51.984;5.890;2022-08-26T00:47:06;58.78;;;55.92;;
66933;SDS011;53846;51.984;5.890;2022-08-26T00:49:42;57.20;;;54.40;;
66933;SDS011;53846;51.984;5.890;2022-08-26T00:52:14;55.00;;;52.30;;
66933;SDS011;53846;51.984;5.890;2022-08-26T00:54:47;54.15;;;51.55;;
66933;SDS011;53846;51.984;5.890;2022-08-26T00:57:20;55.50;;;52.70;;
66933;SDS011;53846;51.984;5.890;2022-08-26T00:59:53;55.85;;;53.10;;
66933;SDS011;53846;51.984;5.890;2022-08-26T01:02:26;54.88;;;52.17;;
66933;SDS011;53846;51.984;5.890;2022-08-26T01:04:56;53.15;;;50.55;;
66933;SDS011;53846;51.984;5.890;2022-08-26T01:07:29;47.50;;;45.10;;
66933;SDS011;53846;51.984;5.890;2022-08-26T01:09:59;47.28;;;45.00;;
66933;SDS011;53846;51.984;5.890;2022-08-26T01:12:32;47.95;;;45.65;;
66933;SDS011;53846;51.984;5.890;2022-08-26T01:15:08;46.03;;;43.78;;
66933;SDS011;53846;51.984;5.890;2022-08-26T01:17:39;42.75;;;40.65;;
66933;SDS011;53846;51.984;5.890;2022-08-26T01:20:10;47.08;;;44.78;;
66933;SDS011;53846;51.984;5.890;2022-08-26T01:22:54;45.72;;;43.50;;
66933;SDS011;53846;51.984;5.890;2022-08-26T01:25:26;41.10;;;39.10;;
66933;SDS011;53846;51.984;5.890;2022-08-26T01:27:59;41.50;;;39.47;;
66933;SDS011;53846;51.984;5.890;2022-08-26T01:30:31;42.63;;;40.53;;
66933;SDS011;53846;51.984;5.890;2022-08-26T01:33:02;41.05;;;39.05;;
66933;SDS011;53846;51.984;5.890;2022-08-26T01:35:34;41.50;;;39.47;;
66933;SDS011;53846;51.984;5.890;2022-08-26T01:38:07;39.92;;;38.03;;
66933;SDS011;53846;51.984;5.890;2022-08-26T01:40:37;42.50;;;40.40;;
66933;SDS011;53846;51.984;5.890;2022-08-26T01:43:09;38.88;;;36.97;;
66933;SDS011;53846;51.984;5.890;2022-08-26T01:45:44;37.95;;;36.13;;
66933;SDS011;53846;51.984;5.890;2022-08-26T01:48:18;39.65;;;37.75;;
66933;SDS011;53846;51.984;5.890;2022-08-26T01:50:51;36.70;;;34.95;;
66933;SDS011;53846;51.984;5.890;2022-08-26T01:53:24;38.08;;;36.28;;
66933;SDS011;53846;51.984;5.890;2022-08-26T01:55:55;41.45;;;39.45;;
66933;SDS011;53846;51.984;5.890;2022-08-26T01:58:27;39.15;;;37.25;;
66933;SDS011;53846;51.984;5.890;2022-08-26T02:00:59;38.78;;;36.88;;
66933;SDS011;53846;51.984;5.890;2022-08-26T02:03:29;160.57;;;151.63;;
66933;SDS011;53846;51.984;5.890;2022-08-26T02:06:02;62.10;;;59.10;;
66933;SDS011;53846;51.984;5.890;2022-08-26T02:08:37;52.72;;;50.17;;
66933;SDS011;53846;51.984;5.890;2022-08-26T02:11:08;51.97;;;49.47;;
66933;SDS011;53846;51.984;5.890;2022-08-26T02:13:38;50.45;;;48.00;;
66933;SDS011;53846;51.984;5.890;2022-08-26T02:16:09;49.85;;;47.38;;
66933;SDS011;53846;51.984;5.890;2022-08-26T02:18:39;54.42;;;50.67;;
66933;SDS011;53846;51.984;5.890;2022-08-26T02:21:11;52.72;;;50.15;;
66933;SDS011;53846;51.984;5.890;2022-08-26T02:23:43;366.15;;;345.88;;
66933;SDS011;53846;51.984;5.890;2022-08-26T02:26:13;88.38;;;83.63;;
66933;SDS011;53846;51.984;5.890;2022-08-26T02:28:45;71.80;;;68.22;;
66933;SDS011;53846;51.984;5.890;2022-08-26T02:31:18;67.93;;;64.60;;
66933;SDS011;53846;51.984;5.890;2022-08-26T02:33:47;68.60;;;65.20;;
66933;SDS011;53846;51.984;5.890;2022-08-26T02:36:17;67.55;;;64.18;;
66933;SDS011;53846;51.984;5.890;2022-08-26T02:38:50;63.72;;;60.63;;
66933;SDS011;53846;51.984;5.890;2022-08-26T02:41:19;63.88;;;60.78;;
66933;SDS011;53846;51.984;5.890;2022-08-26T02:43:48;64.05;;;60.92;;
66933;SDS011;53846;51.984;5.890;2022-08-26T02:46:17;59.47;;;56.58;;
66933;SDS011;53846;51.984;5.890;2022-08-26T02:48:47;58.00;;;55.15;;
66933;SDS011;53846;51.984;5.890;2022-08-26T02:51:16;56.53;;;53.72;;
66933;SDS011;53846;51.984;5.890;2022-08-26T02:53:45;54.47;;;51.80;;
66933;SDS011;53846;51.984;5.890;2022-08-26T02:56:17;55.10;;;52.42;;
66933;SDS011;53846;51.984;5.890;2022-08-26T02:58:46;50.53;;;48.03;;
66933;SDS011;53846;51.984;5.890;2022-08-26T03:01:22;51.17;;;48.58;;
66933;SDS011;53846;51.984;5.890;2022-08-26T03:03:53;46.47;;;44.20;;
66933;SDS011;53846;51.984;5.890;2022-08-26T03:06:22;44.50;;;42.35;;
66933;SDS011;53846;51.984;5.890;2022-08-26T03:08:52;53.28;;;50.55;;
66933;SDS011;53846;51.984;5.890;2022-08-26T03:11:24;47.55;;;45.25;;
66933;SDS011;53846;51.984;5.890;2022-08-26T03:13:53;50.17;;;47.67;;
66933;SDS011;53846;51.984;5.890;2022-08-26T03:16:23;48.55;;;46.20;;
66933;SDS011;53846;51.984;5.890;2022-08-26T03:18:52;49.92;;;47.45;;
66933;SDS011;53846;51.984;5.890;2022-08-26T03:21:21;45.70;;;43.42;;
66933;SDS011;53846;51.984;5.890;2022-08-26T03:23:50;47.45;;;45.15;;
66933;SDS011;53846;51.984;5.890;2022-08-26T03:26:19;48.20;;;45.90;;
66933;SDS011;53846;51.984;5.890;2022-08-26T03:28:51;44.60;;;42.45;;
66933;SDS011;53846;51.984;5.890;2022-08-26T03:31:32;46.08;;;43.85;;
66933;SDS011;53846;51.984;5.890;2022-08-26T03:34:01;48.95;;;46.55;;
66933;SDS011;53846;51.984;5.890;2022-08-26T03:36:31;45.47;;;43.22;;
66933;SDS011;53846;51.984;5.890;2022-08-26T03:39:00;48.88;;;46.53;;
66933;SDS011;53846;51.984;5.890;2022-08-26T03:41:29;48.10;;;45.70;;
66933;SDS011;53846;51.984;5.890;2022-08-26T03:44:01;47.45;;;45.13;;
66933;SDS011;53846;51.984;5.890;2022-08-26T03:46:31;44.47;;;42.28;;
66933;SDS011;53846;51.984;5.890;2022-08-26T03:49:01;47.67;;;45.38;;
66933;SDS011;53846;51.984;5.890;2022-08-26T03:51:32;44.70;;;42.58;;
66933;SDS011;53846;51.984;5.890;2022-08-26T03:54:02;44.60;;;42.45;;
66933;SDS011;53846;51.984;5.890;2022-08-26T03:56:32;50.70;;;48.22;;
66933;SDS011;53846;51.984;5.890;2022-08-26T03:59:04;45.08;;;42.88;;
66933;SDS011;53846;51.984;5.890;2022-08-26T04:01:33;47.08;;;44.80;;
66933;SDS011;53846;51.984;5.890;2022-08-26T04:04:03;43.55;;;41.40;;
66933;SDS011;53846;51.984;5.890;2022-08-26T04:06:33;51.05;;;48.55;;
66933;SDS011;53846;51.984;5.890;2022-08-26T04:09:06;45.45;;;43.25;;
66933;SDS011;53846;51.984;5.890;2022-08-26T04:11:37;46.58;;;44.33;;
66933;SDS011;53846;51.984;5.890;2022-08-26T04:14:11;45.63;;;43.40;;
66933;SDS011;53846;51.984;5.890;2022-08-26T04:16:41;44.33;;;42.17;;
66933;SDS011;53846;51.984;5.890;2022-08-26T04:19:13;46.90;;;44.63;;
66933;SDS011;53846;51.984;5.890;2022-08-26T04:21:44;46.65;;;44.42;;
66933;SDS011;53846;51.984;5.890;2022-08-26T04:24:15;48.22;;;45.88;;
66933;SDS011;53846;51.984;5.890;2022-08-26T04:26:44;44.30;;;42.20;;
66933;SDS011;53846;51.984;5.890;2022-08-26T04:29:18;45.45;;;43.28;;
66933;SDS011;53846;51.984;5.890;2022-08-26T04:31:50;48.30;;;45.97;;
66933;SDS011;53846;51.984;5.890;2022-08-26T04:34:19;45.25;;;43.08;;
66933;SDS011;53846;51.984;5.890;2022-08-26T04:36:49;46.47;;;44.22;;
66933;SDS011;53846;51.984;5.890;2022-08-26T04:39:18;50.35;;;47.90;;
66933;SDS011;53846;51.984;5.890;2022-08-26T04:41:48;51.67;;;49.17;;
66933;SDS011;53846;51.984;5.890;2022-08-26T04:44:22;52.53;;;49.97;;
66933;SDS011;53846;51.984;5.890;2022-08-26T04:46:52;51.58;;;49.08;;
66933;SDS011;53846;51.984;5.890;2022-08-26T04:49:21;54.15;;;51.55;;
66933;SDS011;53846;51.984;5.890;2022-08-26T04:51:50;54.60;;;51.92;;
66933;SDS011;53846;51.984;5.890;2022-08-26T04:54:20;51.25;;;48.75;;
66933;SDS011;53846;51.984;5.890;2022-08-26T04:56:49;50.42;;;48.00;;
66933;SDS011;53846;51.984;5.890;2022-08-26T04:59:18;48.47;;;46.17;;
66933;SDS011;53846;51.984;5.890;2022-08-26T05:01:50;47.50;;;45.17;;
66933;SDS011;53846;51.984;5.890;2022-08-26T05:04:21;65.68;;;62.38;;
66933;SDS011;53846;51.984;5.890;2022-08-26T05:06:50;58.72;;;55.88;;
66933;SDS011;53846;51.984;5.890;2022-08-26T05:09:20;56.83;;;54.03;;
66933;SDS011;53846;51.984;5.890;2022-08-26T05:11:49;53.85;;;51.25;;
66933;SDS011;53846;51.984;5.890;2022-08-26T05:14:19;52.08;;;49.53;;
66933;SDS011;53846;51.984;5.890;2022-08-26T05:16:51;53.75;;;51.10;;
66933;SDS011;53846;51.984;5.890;2022-08-26T05:19:20;51.28;;;48.78;;
66933;SDS011;53846;51.984;5.890;2022-08-26T05:21:49;51.30;;;48.83;;
66933;SDS011;53846;51.984;5.890;2022-08-26T05:24:18;53.47;;;50.90;;
66933;SDS011;53846;51.984;5.890;2022-08-26T05:26:47;49.88;;;47.45;;
66933;SDS011;53846;51.984;5.890;2022-08-26T05:29:17;53.58;;;50.90;;
66933;SDS011;53846;51.984;5.890;2022-08-26T05:31:48;53.55;;;50.97;;
66933;SDS011;53846;51.984;5.890;2022-08-26T05:34:20;51.70;;;49.22;;
66933;SDS011;53846;51.984;5.890;2022-08-26T05:36:49;53.60;;;51.00;;
66933;SDS011;53846;51.984;5.890;2022-08-26T05:39:18;56.70;;;53.92;;
66933;SDS011;53846;51.984;5.890;2022-08-26T05:41:49;51.80;;;49.30;;
66933;SDS011;53846;51.984;5.890;2022-08-26T05:44:18;54.97;;;52.28;;
66933;SDS011;53846;51.984;5.890;2022-08-26T05:46:47;55.58;;;52.88;;
66933;SDS011;53846;51.984;5.890;2022-08-26T05:49:19;56.10;;;53.22;;
66933;SDS011;53846;51.984;5.890;2022-08-26T05:51:48;53.80;;;51.20;;
66933;SDS011;53846;51.984;5.890;2022-08-26T05:54:17;52.38;;;49.85;;
66933;SDS011;53846;51.984;5.890;2022-08-26T05:56:49;55.75;;;53.00;;
66933;SDS011;53846;51.984;5.890;2022-08-26T05:59:18;53.65;;;51.05;;
66933;SDS011;53846;51.984;5.890;2022-08-26T06:01:47;55.20;;;52.53;;
66933;SDS011;53846;51.984;5.890;2022-08-26T06:04:19;56.33;;;53.58;;
66933;SDS011;53846;51.984;5.890;2022-08-26T06:06:49;57.95;;;55.13;;
66933;SDS011;53846;51.984;5.890;2022-08-26T06:09:18;57.92;;;55.13;;
66933;SDS011;53846;51.984;5.890;2022-08-26T06:11:48;56.72;;;53.97;;
66933;SDS011;53846;51.984;5.890;2022-08-26T06:14:17;55.50;;;52.72;;
66933;SDS011;53846;51.984;5.890;2022-08-26T06:16:46;58.60;;;55.78;;
66933;SDS011;53846;51.984;5.890;2022-08-26T06:19:15;60.55;;;57.65;;
66933;SDS011;53846;51.984;5.890;2022-08-26T06:21:47;55.90;;;53.17;;
66933;SDS011;53846;51.984;5.890;2022-08-26T06:24:17;63.22;;;60.08;;
66933;SDS011;53846;51.984;5.890;2022-08-26T06:26:59;59.30;;;56.45;;
66933;SDS011;53846;51.984;5.890;2022-08-26T06:29:33;63.40;;;60.03;;
66933;SDS011;53846;51.984;5.890;2022-08-26T06:32:03;64.78;;;61.63;;
66933;SDS011;53846;51.984;5.890;2022-08-26T06:34:32;67.47;;;62.75;;
66933;SDS011;53846;51.984;5.890;2022-08-26T06:37:04;61.95;;;58.85;;
66933;SDS011;53846;51.984;5.890;2022-08-26T06:39:34;69.07;;;65.68;;
66933;SDS011;53846;51.984;5.890;2022-08-26T06:42:03;68.15;;;64.82;;
66933;SDS011;53846;51.984;5.890;2022-08-26T06:44:33;67.07;;;63.78;;
66933;SDS011;53846;51.984;5.890;2022-08-26T06:47:02;65.38;;;62.15;;
66933;SDS011;53846;51.984;5.890;2022-08-26T06:49:32;70.05;;;66.60;;
66933;SDS011;53846;51.984;5.890;2022-08-26T06:52:04;68.68;;;65.35;;
66933;SDS011;53846;51.984;5.890;2022-08-26T06:54:33;65.07;;;61.83;;
66933;SDS011;53846;51.984;5.890;2022-08-26T06:57:02;75.57;;;71.75;;
66933;SDS011;53846;51.984;5.890;2022-08-26T06:59:31;78.30;;;74.20;;
66933;SDS011;53846;51.984;5.890;2022-08-26T07:02:00;69.63;;;66.13;;
66933;SDS011;53846;51.984;5.890;2022-08-26T07:04:30;68.65;;;65.18;;
66933;SDS011;53846;51.984;5.890;2022-08-26T07:07:00;69.78;;;66.32;;
66933;SDS011;53846;51.984;5.890;2022-08-26T07:09:32;85.38;;;80.97;;
66933;SDS011;53846;51.984;5.890;2022-08-26T07:12:02;78.30;;;74.32;;
66933;SDS011;53846;51.984;5.890;2022-08-26T07:14:32;72.95;;;69.20;;
66933;SDS011;53846;51.984;5.890;2022-08-26T07:17:02;73.22;;;69.47;;
66933;SDS011;53846;51.984;5.890;2022-08-26T07:19:31;77.70;;;73.75;;
66933;SDS011;53846;51.984;5.890;2022-08-26T07:22:01;72.45;;;66.15;;
66933;SDS011;53846;51.984;5.890;2022-08-26T07:24:34;71.38;;;67.78;;
66933;SDS011;53846;51.984;5.890;2022-08-26T07:27:08;85.55;;;81.15;;
66933;SDS011;53846;51.984;5.890;2022-08-26T07:29:38;91.72;;;86.97;;
66933;SDS011;53846;51.984;5.890;2022-08-26T07:32:09;106.55;;;101.03;;
66933;SDS011;53846;51.984;5.890;2022-08-26T07:34:40;121.78;;;115.35;;
66933;SDS011;53846;51.984;5.890;2022-08-26T07:37:12;110.30;;;104.65;;
66933;SDS011;53846;51.984;5.890;2022-08-26T07:39:42;115.32;;;109.30;;
66933;SDS011;53846;51.984;5.890;2022-08-26T07:42:13;127.72;;;121.10;;
66933;SDS011;53846;51.984;5.890;2022-08-26T07:44:42;112.18;;;106.35;;
66933;SDS011;53846;51.984;5.890;2022-08-26T07:47:12;106.22;;;100.70;;
66933;SDS011;53846;51.984;5.890;2022-08-26T07:49:41;107.45;;;101.85;;
66933;SDS011;53846;51.984;5.890;2022-08-26T07:52:13;116.28;;;110.22;;
66933;SDS011;53846;51.984;5.890;2022-08-26T07:54:42;126.28;;;119.70;;
66933;SDS011;53846;51.984;5.890;2022-08-26T07:57:11;133.40;;;126.35;;
66933;SDS011;53846;51.984;5.890;2022-08-26T07:59:40;147.07;;;139.43;;
66933;SDS011;53846;51.984;5.890;2022-08-26T08:02:09;154.63;;;146.60;;
66933;SDS011;53846;51.984;5.890;2022-08-26T08:04:38;161.30;;;152.95;;
66933;SDS011;53846;51.984;5.890;2022-08-26T08:07:07;170.95;;;162.07;;
66933;SDS011;53846;51.984;5.890;2022-08-26T08:09:38;180.52;;;171.27;;
66933;SDS011;53846;51.984;5.890;2022-08-26T08:12:07;177.13;;;167.95;;
66933;SDS011;53846;51.984;5.890;2022-08-26T08:14:36;168.15;;;159.48;;
66933;SDS011;53846;51.984;5.890;2022-08-26T08:17:05;166.88;;;158.20;;
66933;SDS011;53846;51.984;5.890;2022-08-26T08:19:34;157.55;;;149.38;;
66933;SDS011;53846;51.984;5.890;2022-08-26T08:22:03;143.70;;;136.20;;
66933;SDS011;53846;51.984;5.890;2022-08-26T08:24:33;172.88;;;163.93;;
66933;SDS011;53846;51.984;5.890;2022-08-26T08:27:05;176.23;;;167.10;;
66933;SDS011;53846;51.984;5.890;2022-08-26T08:29:35;164.40;;;155.80;;
66933;SDS011;53846;51.984;5.890;2022-08-26T08:32:04;133.65;;;126.68;;
66933;SDS011;53846;51.984;5.890;2022-08-26T08:34:34;130.70;;;123.85;;
66933;SDS011;53846;51.984;5.890;2022-08-26T08:37:03;112.57;;;106.75;;
66933;SDS011;53846;51.984;5.890;2022-08-26T08:39:33;112.22;;;106.40;;
66933;SDS011;53846;51.984;5.890;2022-08-26T08:42:11;96.03;;;91.07;;
66933;SDS011;53846;51.984;5.890;2022-08-26T08:44:54;86.30;;;81.82;;
66933;SDS011;53846;51.984;5.890;2022-08-26T08:47:28;91.55;;;86.78;;
66933;SDS011;53846;51.984;5.890;2022-08-26T08:50:03;87.25;;;82.80;;
66933;SDS011;53846;51.984;5.890;2022-08-26T08:52:38;78.72;;;74.68;;
66933;SDS011;53846;51.984;5.890;2022-08-26T08:55:11;79.45;;;75.35;;
66933;SDS011;53846;51.984;5.890;2022-08-26T08:57:49;74.15;;;70.40;;
66933;SDS011;53846;51.984;5.890;2022-08-26T09:00:25;70.70;;;67.10;;
66933;SDS011;53846;51.984;5.890;2022-08-26T09:03:01;69.88;;;66.38;;
66933;SDS011;53846;51.984;5.890;2022-08-26T09:05:35;72.38;;;68.70;;
66933;SDS011;53846;51.984;5.890;2022-08-26T09:08:09;70.10;;;66.55;;
66933;SDS011;53846;51.984;5.890;2022-08-26T09:10:45;73.40;;;69.63;;
66933;SDS011;53846;51.984;5.890;2022-08-26T09:13:20;293.60;;;277.70;;
66933;SDS011;53846;51.984;5.890;2022-08-26T09:15:52;207.05;;;196.15;;
66933;SDS011;53846;51.984;5.890;2022-08-26T09:18:36;131.75;;;124.75;;
66933;SDS011;53846;51.984;5.890;2022-08-26T09:21:14;102.43;;;96.85;;
66933;SDS011;53846;51.984;5.890;2022-08-26T09:23:45;78.85;;;74.78;;
66933;SDS011;53846;51.984;5.890;2022-08-26T09:26:16;78.30;;;74.32;;
66933;SDS011;53846;51.984;5.890;2022-08-26T09:28:53;71.75;;;68.07;;
66933;SDS011;53846;51.984;5.890;2022-08-26T09:31:25;71.07;;;67.50;;
66933;SDS011;53846;51.984;5.890;2022-08-26T09:34:04;67.35;;;63.92;;
66933;SDS011;53846;51.984;5.890;2022-08-26T09:36:35;72.32;;;68.68;;
66933;SDS011;53846;51.984;5.890;2022-08-26T09:39:11;72.10;;;68.43;;
66933;SDS011;53846;51.984;5.890;2022-08-26T09:42:00;89.82;;;85.22;;
66933;SDS011;53846;51.984;5.890;2022-08-26T09:44:49;70.38;;;66.88;;
66933;SDS011;53846;51.984;5.890;2022-08-26T09:47:22;76.63;;;72.68;;
66933;SDS011;53846;51.984;5.890;2022-08-26T09:49:55;73.15;;;69.47;;
66933;SDS011;53846;51.984;5.890;2022-08-26T09:52:28;79.55;;;75.53;;
66933;SDS011;53846;51.984;5.890;2022-08-26T09:55:00;84.07;;;79.78;;
66933;SDS011;53846;51.984;5.890;2022-08-26T09:57:34;83.30;;;79.10;;
66933;SDS011;53846;51.984;5.890;2022-08-26T10:00:24;83.47;;;79.13;;
66933;SDS011;53846;51.984;5.890;2022-08-26T10:02:56;92.15;;;87.45;;
66933;SDS011;53846;51.984;5.890;2022-08-26T10:05:27;93.97;;;89.15;;
66933;SDS011;53846;51.984;5.890;2022-08-26T10:07:59;86.25;;;81.80;;
66933;SDS011;53846;51.984;5.890;2022-08-26T10:10:45;79.20;;;75.22;;
66933;SDS011;53846;51.984;5.890;2022-08-26T10:13:16;90.55;;;85.97;;
66933;SDS011;53846;51.984;5.890;2022-08-26T10:15:55;95.95;;;91.03;;
66933;SDS011;53846;51.984;5.890;2022-08-26T10:18:31;109.28;;;103.68;;
66933;SDS011;53846;51.984;5.890;2022-08-26T10:21:05;126.72;;;120.13;;
66933;SDS011;53846;51.984;5.890;2022-08-26T10:23:39;111.88;;;106.10;;
66933;SDS011;53846;51.984;5.890;2022-08-26T10:26:11;124.28;;;117.85;;
66933;SDS011;53846;51.984;5.890;2022-08-26T10:28:45;130.43;;;123.72;;
66933;SDS011;53846;51.984;5.890;2022-08-26T10:31:26;118.10;;;111.97;;
66933;SDS011;53846;51.984;5.890;2022-08-26T10:33:56;116.47;;;110.47;;
66933;SDS011;53846;51.984;5.890;2022-08-26T10:36:25;128.13;;;121.53;;
66933;SDS011;53846;51.984;5.890;2022-08-26T10:39:12;139.88;;;132.60;;
66933;SDS011;53846;51.984;5.890;2022-08-26T10:41:46;147.68;;;140.00;;
66933;SDS011;53846;51.984;5.890;2022-08-26T10:44:18;139.43;;;132.25;;
66933;SDS011;53846;51.984;5.890;2022-08-26T10:46:52;196.38;;;186.52;;
66933;SDS011;53846;51.984;5.890;2022-08-26T10:49:23;182.25;;;172.95;;
66933;SDS011;53846;51.984;5.890;2022-08-26T10:51:54;194.13;;;184.30;;
66933;SDS011;53846;51.984;5.890;2022-08-26T10:54:32;196.95;;;186.98;;
66933;SDS011;53846;51.984;5.890;2022-08-26T10:57:07;193.95;;;184.15;;
66933;SDS011;53846;51.984;5.890;2022-08-26T10:59:47;191.70;;;182.10;;
66933;SDS011;53846;51.984;5.890;2022-08-26T11:02:27;198.82;;;188.85;;
66933;SDS011;53846;51.984;5.890;2022-08-26T11:05:02;184.32;;;174.82;;
66933;SDS011;53846;51.984;5.890;2022-08-26T11:07:36;177.88;;;168.82;;
66933;SDS011;53846;51.984;5.890;2022-08-26T11:13:16;177.70;;;168.68;;
66933;SDS011;53846;51.984;5.890;2022-08-26T11:15:57;175.38;;;166.38;;
66933;SDS011;53846;51.984;5.890;2022-08-26T11:18:37;165.32;;;156.82;;
66933;SDS011;53846;51.984;5.890;2022-08-26T11:33:02;118.40;;;112.40;;
66933;SDS011;53846;51.984;5.890;2022-08-26T11:38:22;101.82;;;96.65;;
66933;SDS011;53846;51.984;5.890;2022-08-26T11:40:58;102.75;;;97.50;;
66933;SDS011;53846;51.984;5.890;2022-08-26T11:43:34;102.07;;;96.95;;
66933;SDS011;53846;51.984;5.890;2022-08-26T11:46:06;109.22;;;103.60;;
66933;SDS011;53846;51.984;5.890;2022-08-26T11:48:37;131.98;;;125.25;;
66933;SDS011;53846;51.984;5.890;2022-08-26T11:51:11;134.02;;;127.07;;
66933;SDS011;53846;51.984;5.890;2022-08-26T11:53:50;128.85;;;122.25;;
66933;SDS011;53846;51.984;5.890;2022-08-26T11:56:34;135.57;;;128.68;;
66933;SDS011;53846;51.984;5.890;2022-08-26T11:59:06;157.77;;;149.73;;
66933;SDS011;53846;51.984;5.890;2022-08-26T12:01:37;144.38;;;136.98;;
66933;SDS011;53846;51.984;5.890;2022-08-26T12:04:10;152.52;;;144.75;;
66933;SDS011;53846;51.984;5.890;2022-08-26T12:06:48;145.63;;;138.18;;
66933;SDS011;53846;51.984;5.890;2022-08-26T12:09:19;146.77;;;139.15;;
66933;SDS011;53846;51.984;5.890;2022-08-26T12:11:50;156.27;;;148.30;;
66933;SDS011;53846;51.984;5.890;2022-08-26T12:14:21;153.38;;;145.50;;
66933;SDS011;53846;51.984;5.890;2022-08-26T12:16:52;154.88;;;146.70;;
66933;SDS011;53846;51.984;5.890;2022-08-26T12:19:22;158.98;;;150.75;;
66933;SDS011;53846;51.984;5.890;2022-08-26T12:21:56;155.88;;;147.90;;
66933;SDS011;53846;51.984;5.890;2022-08-26T12:24:28;149.20;;;141.55;;
66933;SDS011;53846;51.984;5.890;2022-08-26T12:27:04;156.40;;;148.32;;
66933;SDS011;53846;51.984;5.890;2022-08-26T12:29:41;164.02;;;155.30;;
66933;SDS011;53846;51.984;5.890;2022-08-26T12:32:12;163.65;;;155.20;;
66933;SDS011;53846;51.984;5.890;2022-08-26T12:34:43;177.63;;;168.57;;
66933;SDS011;53846;51.984;5.890;2022-08-26T12:37:17;189.90;;;180.40;;
66933;SDS011;53846;51.984;5.890;2022-08-26T12:39:46;180.80;;;171.60;;
66933;SDS011;53846;51.984;5.890;2022-08-26T12:42:21;191.27;;;181.73;;
66933;SDS011;53846;51.984;5.890;2022-08-26T12:45:06;183.35;;;173.95;;
66933;SDS011;53846;51.984;5.890;2022-08-26T12:47:36;196.93;;;187.07;;
66933;SDS011;53846;51.984;5.890;2022-08-26T12:50:08;195.35;;;185.60;;
66933;SDS011;53846;51.984;5.890;2022-08-26T12:52:53;201.50;;;191.30;;
66933;SDS011;53846;51.984;5.890;2022-08-26T12:55:33;183.25;;;173.90;;
66933;SDS011;53846;51.984;5.890;2022-08-26T12:58:10;210.70;;;200.23;;
66933;SDS011;53846;51.984;5.890;2022-08-26T13:00:41;219.20;;;208.48;;
66933;SDS011;53846;51.984;5.890;2022-08-26T13:06:07;220.50;;;209.68;;
66933;SDS011;53846;51.984;5.890;2022-08-26T13:08:41;225.45;;;214.35;;
66933;SDS011;53846;51.984;5.890;2022-08-26T13:11:13;222.70;;;211.57;;
66933;SDS011;53846;51.984;5.890;2022-08-26T13:13:45;225.00;;;214.02;;
66933;SDS011;53846;51.984;5.890;2022-08-26T13:16:16;223.95;;;212.95;;
66933;SDS011;53846;51.984;5.890;2022-08-26T13:18:45;204.25;;;194.13;;
66933;SDS011;53846;51.984;5.890;2022-08-26T13:21:16;192.65;;;183.18;;
66933;SDS011;53846;51.984;5.890;2022-08-26T13:23:49;189.93;;;179.80;;
66933;SDS011;53846;51.984;5.890;2022-08-26T13:26:20;202.43;;;192.45;;
66933;SDS011;53846;51.984;5.890;2022-08-26T13:28:49;202.45;;;192.55;;
66933;SDS011;53846;51.984;5.890;2022-08-26T13:31:18;167.48;;;159.18;;
66933;SDS011;53846;51.984;5.890;2022-08-26T13:33:50;183.98;;;174.95;;
66933;SDS011;53846;51.984;5.890;2022-08-26T13:36:19;186.75;;;177.50;;
66933;SDS011;53846;51.984;5.890;2022-08-26T13:38:51;208.50;;;198.27;;
66933;SDS011;53846;51.984;5.890;2022-08-26T13:41:20;195.55;;;185.85;;
66933;SDS011;53846;51.984;5.890;2022-08-26T13:43:49;200.55;;;190.60;;
66933;SDS011;53846;51.984;5.890;2022-08-26T13:46:18;206.25;;;196.10;;
66933;SDS011;53846;51.984;5.890;2022-08-26T13:48:47;199.13;;;189.32;;
66933;SDS011;53846;51.984;5.890;2022-08-26T13:51:18;205.75;;;195.70;;
66933;SDS011;53846;51.984;5.890;2022-08-26T13:53:47;209.38;;;199.07;;
66933;SDS011;53846;51.984;5.890;2022-08-26T13:56:21;213.18;;;202.75;;
66933;SDS011;53846;51.984;5.890;2022-08-26T13:58:52;204.18;;;194.10;;
66933;SDS011;53846;51.984;5.890;2022-08-26T14:01:21;210.82;;;200.48;;
66933;SDS011;53846;51.984;5.890;2022-08-26T14:03:50;201.63;;;191.63;;
66933;SDS011;53846;51.984;5.890;2022-08-26T14:06:20;208.15;;;197.90;;
66933;SDS011;53846;51.984;5.890;2022-08-26T14:08:49;183.90;;;174.70;;
66933;SDS011;53846;51.984;5.890;2022-08-26T14:11:21;192.32;;;182.75;;
66933;SDS011;53846;51.984;5.890;2022-08-26T14:13:52;198.82;;;189.02;;
66933;SDS011;53846;51.984;5.890;2022-08-26T14:16:22;199.57;;;189.70;;
66933;SDS011;53846;51.984;5.890;2022-08-26T14:18:56;185.52;;;176.23;;
66933;SDS011;53846;51.984;5.890;2022-08-26T14:21:26;185.07;;;175.85;;
66933;SDS011;53846;51.984;5.890;2022-08-26T14:23:57;189.60;;;180.13;;
66933;SDS011;53846;51.984;5.890;2022-08-26T14:26:28;172.63;;;163.88;;
66933;SDS011;53846;51.984;5.890;2022-08-26T14:28:58;169.35;;;160.80;;
66933;SDS011;53846;51.984;5.890;2022-08-26T14:31:28;164.23;;;155.88;;
66933;SDS011;53846;51.984;5.890;2022-08-26T14:34:00;146.82;;;139.43;;
66933;SDS011;53846;51.984;5.890;2022-08-26T14:36:32;170.75;;;162.10;;
66933;SDS011;53846;51.984;5.890;2022-08-26T14:39:03;158.75;;;150.63;;
66933;SDS011;53846;51.984;5.890;2022-08-26T14:41:37;160.30;;;152.07;;
66933;SDS011;53846;51.984;5.890;2022-08-26T14:44:09;185.80;;;176.43;;
66933;SDS011;53846;51.984;5.890;2022-08-26T14:46:40;228.85;;;217.25;;
66933;SDS011;53846;51.984;5.890;2022-08-26T14:49:13;237.85;;;226.10;;
66933;SDS011;53846;51.984;5.890;2022-08-26T14:51:42;222.30;;;211.35;;
66933;SDS011;53846;51.984;5.890;2022-08-26T14:54:12;213.75;;;203.27;;
66933;SDS011;53846;51.984;5.890;2022-08-26T14:56:46;203.80;;;193.82;;
66933;SDS011;53846;51.984;5.890;2022-08-26T14:59:16;190.40;;;181.02;;